createdAt,value
2023-02-21T00:00:15.291Z,0
2023-02-21T00:01:15.551Z,0
2023-02-21T00:02:15.327Z,0
2023-02-21T00:03:15.297Z,0
2023-02-21T00:04:15.299Z,0
2023-02-21T00:05:15.401Z,0
2023-02-21T00:06:15.308Z,0
2023-02-21T00:07:15.300Z,0
2023-02-21T00:08:15.298Z,0
2023-02-21T00:09:15.304Z,0
2023-02-21T00:10:15.312Z,0
2023-02-21T00:11:15.587Z,0
2023-02-21T00:12:15.304Z,0
2023-02-21T00:13:15.303Z,0
2023-02-21T00:14:15.330Z,0
2023-02-21T00:15:15.307Z,0
2023-02-21T00:16:15.357Z,0
2023-02-21T00:17:15.325Z,0
2023-02-21T00:18:15.314Z,0
2023-02-21T00:19:15.312Z,0
2023-02-21T00:20:17.953Z,0
2023-02-21T00:21:15.517Z,0
2023-02-21T00:22:15.312Z,0
2023-02-21T00:23:15.312Z,0
2023-02-21T00:24:15.309Z,0
2023-02-21T00:25:15.318Z,0
2023-02-21T00:26:15.316Z,0
2023-02-21T00:27:15.318Z,0
2023-02-21T00:28:15.313Z,0
2023-02-21T00:29:15.316Z,0
2023-02-21T00:30:15.495Z,0
2023-02-21T00:31:15.592Z,0
2023-02-21T00:32:15.341Z,0
2023-02-21T00:33:15.403Z,0
2023-02-21T00:34:15.321Z,0
2023-02-21T00:35:15.326Z,0
2023-02-21T00:36:15.321Z,0
2023-02-21T00:37:15.320Z,0
2023-02-21T00:38:15.322Z,0
2023-02-21T00:39:15.323Z,0
2023-02-21T00:40:15.328Z,0
2023-02-21T00:41:15.611Z,0
2023-02-21T00:42:15.324Z,0
2023-02-21T00:43:15.321Z,0
2023-02-21T00:44:15.328Z,0
2023-02-21T00:45:15.326Z,0
2023-02-21T00:46:15.440Z,0
2023-02-21T00:47:15.324Z,0
2023-02-21T00:48:15.329Z,0
2023-02-21T00:49:15.331Z,0
2023-02-21T00:50:15.331Z,0
2023-02-21T00:51:15.619Z,0
2023-02-21T00:52:15.334Z,0
2023-02-21T00:53:15.329Z,0
2023-02-21T00:54:15.331Z,0
2023-02-21T00:55:15.339Z,0
2023-02-21T00:56:15.334Z,0
2023-02-21T00:57:15.330Z,0
2023-02-21T00:58:15.335Z,0
2023-02-21T00:59:15.333Z,0
2023-02-21T01:00:15.333Z,0
2023-02-21T01:01:15.631Z,0
2023-02-21T01:02:15.368Z,0
2023-02-21T01:03:15.339Z,0
2023-02-21T01:04:15.403Z,0
2023-02-21T01:05:15.341Z,0
2023-02-21T01:06:15.348Z,0
2023-02-21T01:07:15.342Z,0
2023-02-21T01:08:15.342Z,0
2023-02-21T01:09:15.344Z,0
2023-02-21T01:10:15.341Z,0
2023-02-21T01:11:15.599Z,0
2023-02-21T01:12:15.345Z,0
2023-02-21T01:13:15.348Z,0
2023-02-21T01:14:15.351Z,0
2023-02-21T01:15:15.346Z,0
2023-02-21T01:16:15.353Z,0
2023-02-21T01:17:15.349Z,0
2023-02-21T01:18:15.379Z,0
2023-02-21T01:19:15.363Z,0
2023-02-21T01:20:15.353Z,0
2023-02-21T01:21:15.588Z,0
2023-02-21T01:22:15.356Z,0
2023-02-21T01:23:15.357Z,0
2023-02-21T01:24:15.355Z,0
2023-02-21T01:25:15.354Z,0
2023-02-21T01:26:15.356Z,0
2023-02-21T01:27:15.361Z,0
2023-02-21T01:28:15.360Z,0
2023-02-21T01:29:15.361Z,0
2023-02-21T01:30:15.389Z,0
2023-02-21T01:31:15.711Z,0
2023-02-21T01:32:15.384Z,0
2023-02-21T01:33:15.362Z,0
2023-02-21T01:34:15.389Z,0
2023-02-21T01:35:15.364Z,0
2023-02-21T01:36:15.370Z,0
2023-02-21T01:37:15.374Z,0
2023-02-21T01:38:15.370Z,0
2023-02-21T01:39:15.367Z,0
2023-02-21T01:40:15.363Z,0
2023-02-21T01:41:15.652Z,0
2023-02-21T01:42:15.374Z,0
2023-02-21T01:43:15.370Z,0
2023-02-21T01:44:15.379Z,0
2023-02-21T01:45:15.370Z,0
2023-02-21T01:46:15.418Z,0
2023-02-21T01:47:15.368Z,0
2023-02-21T01:48:15.373Z,0
2023-02-21T01:49:15.369Z,0
2023-02-21T01:50:15.401Z,0
2023-02-21T01:51:15.666Z,0
2023-02-21T01:52:15.372Z,0
2023-02-21T01:53:15.373Z,0
2023-02-21T01:54:15.373Z,0
2023-02-21T01:55:15.377Z,0
2023-02-21T01:56:15.376Z,0
2023-02-21T01:57:15.375Z,0
2023-02-21T01:58:15.379Z,0
2023-02-21T01:59:15.379Z,0
2023-02-21T02:00:15.388Z,0
2023-02-21T02:01:15.656Z,0
2023-02-21T02:02:15.381Z,0
2023-02-21T02:03:15.383Z,0
2023-02-21T02:04:15.416Z,0
2023-02-21T02:05:15.383Z,0
2023-02-21T02:06:15.410Z,0
2023-02-21T02:07:15.383Z,0
2023-02-21T02:08:15.389Z,0
2023-02-21T02:09:15.388Z,0
2023-02-21T02:10:15.386Z,0
2023-02-21T02:11:15.693Z,0
2023-02-21T02:12:15.388Z,0
2023-02-21T02:13:15.390Z,0
2023-02-21T02:14:15.393Z,0
2023-02-21T02:15:15.394Z,0
2023-02-21T02:16:15.434Z,0
2023-02-21T02:17:16.627Z,0
2023-02-21T02:18:15.396Z,0
2023-02-21T02:19:15.433Z,0
2023-02-21T02:20:15.395Z,0
2023-02-21T02:21:15.669Z,0
2023-02-21T02:22:15.418Z,0
2023-02-21T02:23:15.397Z,0
2023-02-21T02:24:15.397Z,0
2023-02-21T02:25:15.398Z,0
2023-02-21T02:26:15.404Z,0
2023-02-21T02:27:15.399Z,0
2023-02-21T02:28:15.401Z,0
2023-02-21T02:29:15.398Z,0
2023-02-21T02:30:15.429Z,0
2023-02-21T02:31:15.733Z,0
2023-02-21T02:32:15.438Z,0
2023-02-21T02:33:15.420Z,0
2023-02-21T02:34:15.407Z,0
2023-02-21T02:35:15.407Z,0
2023-02-21T02:36:15.405Z,0
2023-02-21T02:37:15.417Z,0
2023-02-21T02:38:15.428Z,0
2023-02-21T02:39:15.408Z,0
2023-02-21T02:40:15.407Z,0
2023-02-21T02:41:15.692Z,0
2023-02-21T02:42:15.409Z,0
2023-02-21T02:43:15.407Z,0
2023-02-21T02:44:15.412Z,0
2023-02-21T02:45:15.412Z,0
2023-02-21T02:46:15.434Z,0
2023-02-21T02:47:15.411Z,0
2023-02-21T02:48:15.412Z,0
2023-02-21T02:49:15.411Z,0
2023-02-21T02:50:15.412Z,0
2023-02-21T02:51:15.810Z,0
2023-02-21T02:52:15.411Z,0
2023-02-21T02:53:15.413Z,0
2023-02-21T02:54:15.439Z,0
2023-02-21T02:55:15.415Z,0
2023-02-21T02:56:15.413Z,0
2023-02-21T02:57:15.414Z,0
2023-02-21T02:58:15.412Z,0
2023-02-21T02:59:15.415Z,0
2023-02-21T03:00:15.415Z,0
2023-02-21T03:01:15.749Z,0
2023-02-21T03:02:15.415Z,0
2023-02-21T03:03:15.433Z,0
2023-02-21T03:04:15.413Z,0
2023-02-21T03:05:15.418Z,0
2023-02-21T03:06:15.412Z,0
2023-02-21T03:07:15.418Z,0
2023-02-21T03:08:15.412Z,0
2023-02-21T03:09:15.413Z,0
2023-02-21T03:10:15.439Z,0
2023-02-21T03:11:15.650Z,0
2023-02-21T03:12:15.413Z,0
2023-02-21T03:13:15.418Z,0
2023-02-21T03:14:15.412Z,0
2023-02-21T03:15:15.422Z,0
2023-02-21T03:16:15.481Z,0
2023-02-21T03:17:15.419Z,0
2023-02-21T03:18:15.420Z,0
2023-02-21T03:19:15.418Z,0
2023-02-21T03:20:15.432Z,0
2023-02-21T03:21:15.615Z,0
2023-02-21T03:22:15.423Z,0
2023-02-21T03:23:15.423Z,0
2023-02-21T03:24:15.430Z,0
2023-02-21T03:25:15.423Z,0
2023-02-21T03:26:15.452Z,0
2023-02-21T03:27:15.425Z,0
2023-02-21T03:28:15.426Z,0
2023-02-21T03:29:15.425Z,0
2023-02-21T03:30:15.466Z,0
2023-02-21T03:31:15.654Z,0
2023-02-21T03:32:15.444Z,0
2023-02-21T03:33:15.426Z,0
2023-02-21T03:34:15.424Z,0
2023-02-21T03:35:15.423Z,0
2023-02-21T03:36:15.431Z,0
2023-02-21T03:37:15.425Z,0
2023-02-21T03:38:15.426Z,0
2023-02-21T03:39:15.426Z,0
2023-02-21T03:40:15.429Z,0
2023-02-21T03:41:15.770Z,0
2023-02-21T03:42:15.455Z,0
2023-02-21T03:43:15.429Z,0
2023-02-21T03:44:15.426Z,0
2023-02-21T03:45:15.426Z,0
2023-02-21T03:46:15.466Z,0
2023-02-21T03:47:15.434Z,0
2023-02-21T03:48:17.767Z,0
2023-02-21T03:49:15.426Z,0
2023-02-21T03:50:15.431Z,0
2023-02-21T03:51:15.740Z,0
2023-02-21T03:52:15.440Z,0
2023-02-21T03:53:15.426Z,0
2023-02-21T03:54:15.432Z,0
2023-02-21T03:55:15.447Z,0
2023-02-21T03:56:15.445Z,0
2023-02-21T03:57:15.441Z,0
2023-02-21T03:58:15.467Z,0
2023-02-21T03:59:15.495Z,0
2023-02-21T04:00:15.449Z,0
2023-02-21T04:01:15.782Z,0
2023-02-21T04:02:15.504Z,0
2023-02-21T04:03:15.440Z,0
2023-02-21T04:04:15.437Z,0
2023-02-21T04:05:15.439Z,0
2023-02-21T04:06:15.437Z,0
2023-02-21T04:07:15.446Z,0
2023-02-21T04:08:15.439Z,0
2023-02-21T04:09:15.438Z,0
2023-02-21T04:10:15.441Z,0
2023-02-21T04:11:15.799Z,0
2023-02-21T04:12:15.441Z,0
2023-02-21T04:13:15.442Z,0
2023-02-21T04:14:15.469Z,0
2023-02-21T04:15:15.449Z,0
2023-02-21T04:16:15.507Z,0
2023-02-21T04:17:15.440Z,0
2023-02-21T04:18:15.440Z,0
2023-02-21T04:19:15.441Z,0
2023-02-21T04:20:15.478Z,0
2023-02-21T04:21:15.674Z,0
2023-02-21T04:22:15.447Z,0
2023-02-21T04:23:15.450Z,0
2023-02-21T04:24:15.451Z,0
2023-02-21T04:25:15.449Z,0
2023-02-21T04:26:15.443Z,0
2023-02-21T04:27:15.447Z,0
2023-02-21T04:28:15.462Z,0
2023-02-21T04:29:15.444Z,0
2023-02-21T04:30:15.489Z,0
2023-02-21T04:31:15.703Z,0
2023-02-21T04:32:15.649Z,0
2023-02-21T04:33:15.446Z,0
2023-02-21T04:34:15.448Z,0
2023-02-21T04:35:15.446Z,0
2023-02-21T04:36:15.448Z,0
2023-02-21T04:37:15.448Z,0
2023-02-21T04:38:15.446Z,0
2023-02-21T04:39:15.447Z,0
2023-02-21T04:40:15.452Z,0
2023-02-21T04:41:15.756Z,0
2023-02-21T04:42:15.451Z,0
2023-02-21T04:43:15.455Z,0
2023-02-21T04:44:15.450Z,0
2023-02-21T04:45:15.469Z,0
2023-02-21T04:46:15.478Z,0
2023-02-21T04:47:15.454Z,0
2023-02-21T04:48:15.451Z,0
2023-02-21T04:49:15.450Z,0
2023-02-21T04:50:15.447Z,0
2023-02-21T04:51:15.681Z,0
2023-02-21T04:52:15.450Z,0
2023-02-21T04:53:15.453Z,0
2023-02-21T04:54:15.450Z,0
2023-02-21T04:55:15.465Z,0
2023-02-21T04:56:15.483Z,0
2023-02-21T04:57:15.453Z,0
2023-02-21T04:58:15.452Z,0
2023-02-21T04:59:15.451Z,0
2023-02-21T05:00:15.457Z,0
2023-02-21T05:01:15.938Z,0
2023-02-21T05:02:15.480Z,0
2023-02-21T05:03:15.457Z,0
2023-02-21T05:04:15.498Z,0
2023-02-21T05:05:15.605Z,0
2023-02-21T05:06:15.452Z,0
2023-02-21T05:07:15.455Z,0
2023-02-21T05:08:15.453Z,0
2023-02-21T05:09:15.454Z,0
2023-02-21T05:10:15.450Z,0
2023-02-21T05:11:15.766Z,0
2023-02-21T05:12:15.456Z,0
2023-02-21T05:13:15.454Z,0
2023-02-21T05:14:15.455Z,0
2023-02-21T05:15:15.454Z,0
2023-02-21T05:16:15.488Z,0
2023-02-21T05:17:15.476Z,0
2023-02-21T05:18:15.478Z,0
2023-02-21T05:19:15.454Z,0
2023-02-21T05:20:15.466Z,0
2023-02-21T05:21:15.794Z,0
2023-02-21T05:22:15.453Z,0
2023-02-21T05:23:15.451Z,0
2023-02-21T05:24:15.456Z,0
2023-02-21T05:25:15.456Z,0
2023-02-21T05:26:15.494Z,0
2023-02-21T05:27:15.454Z,0
2023-02-21T05:28:15.458Z,0
2023-02-21T05:29:15.453Z,0
2023-02-21T05:30:15.475Z,0
2023-02-21T05:31:15.903Z,0
2023-02-21T05:32:15.460Z,0
2023-02-21T05:33:15.458Z,0
2023-02-21T05:34:15.491Z,0
2023-02-21T05:35:15.458Z,0
2023-02-21T05:36:15.459Z,0
2023-02-21T05:37:15.457Z,0
2023-02-21T05:38:15.456Z,0
2023-02-21T05:39:15.511Z,0
2023-02-21T05:40:15.471Z,0
2023-02-21T05:41:15.881Z,2
2023-02-21T05:42:15.456Z,2
2023-02-21T05:43:15.470Z,2
2023-02-21T05:44:15.462Z,2
2023-02-21T05:45:15.459Z,2
2023-02-21T05:46:15.487Z,4
2023-02-21T05:47:15.461Z,4
2023-02-21T05:48:15.459Z,5
2023-02-21T05:49:15.466Z,5
2023-02-21T05:50:15.487Z,5
2023-02-21T05:51:15.814Z,5
2023-02-21T05:52:15.470Z,5
2023-02-21T05:53:15.459Z,13
2023-02-21T05:54:15.470Z,13
2023-02-21T05:55:15.465Z,13
2023-02-21T05:56:15.466Z,13
2023-02-21T05:57:15.459Z,13
2023-02-21T05:58:15.468Z,26
2023-02-21T05:59:15.456Z,26
2023-02-21T06:00:15.454Z,26
2023-02-21T06:01:15.746Z,26
2023-02-21T06:02:15.494Z,26
2023-02-21T06:03:15.517Z,45
2023-02-21T06:04:15.476Z,45
2023-02-21T06:05:15.462Z,45
2023-02-21T06:06:15.488Z,45
2023-02-21T06:07:15.458Z,45
2023-02-21T06:08:15.459Z,70
2023-02-21T06:09:15.464Z,70
2023-02-21T06:10:15.468Z,70
2023-02-21T06:11:15.675Z,70
2023-02-21T06:12:15.475Z,70
2023-02-21T06:13:15.470Z,104
2023-02-21T06:14:15.471Z,104
2023-02-21T06:15:15.491Z,104
2023-02-21T06:16:15.473Z,104
2023-02-21T06:17:15.477Z,104
2023-02-21T06:18:15.484Z,143
2023-02-21T06:19:15.483Z,143
2023-02-21T06:20:15.481Z,143
2023-02-21T06:21:15.734Z,143
2023-02-21T06:22:15.505Z,143
2023-02-21T06:23:15.484Z,183
2023-02-21T06:24:15.485Z,183
2023-02-21T06:25:15.492Z,183
2023-02-21T06:26:15.493Z,183
2023-02-21T06:27:15.499Z,183
2023-02-21T06:28:15.491Z,242
2023-02-21T06:29:15.493Z,242
2023-02-21T06:30:15.528Z,242
2023-02-21T06:31:15.734Z,242
2023-02-21T06:32:15.507Z,242
2023-02-21T06:33:15.497Z,327
2023-02-21T06:34:15.496Z,397
2023-02-21T06:35:15.507Z,348
2023-02-21T06:36:15.498Z,348
2023-02-21T06:37:15.505Z,348
2023-02-21T06:38:15.527Z,348
2023-02-21T06:39:15.503Z,348
2023-02-21T06:40:15.514Z,428
2023-02-21T06:41:15.770Z,428
2023-02-21T06:42:15.507Z,428
2023-02-21T06:43:15.534Z,428
2023-02-21T06:44:15.514Z,428
2023-02-21T06:45:15.508Z,488
2023-02-21T06:46:15.580Z,488
2023-02-21T06:47:15.515Z,488
2023-02-21T06:48:15.515Z,488
2023-02-21T06:49:15.525Z,488
2023-02-21T06:50:15.528Z,532
2023-02-21T06:51:15.744Z,532
2023-02-21T06:52:15.517Z,532
2023-02-21T06:53:15.518Z,532
2023-02-21T06:54:15.537Z,577
2023-02-21T06:55:15.520Z,577
2023-02-21T06:56:15.514Z,577
2023-02-21T06:57:15.518Z,610
2023-02-21T06:58:15.521Z,610
2023-02-21T06:59:15.520Z,610
2023-02-21T07:00:15.520Z,610
2023-02-21T07:01:15.860Z,610
2023-02-21T07:02:15.521Z,688
2023-02-21T07:03:15.525Z,688
2023-02-21T07:04:15.538Z,688
2023-02-21T07:05:15.523Z,688
2023-02-21T07:06:15.523Z,688
2023-02-21T07:07:15.527Z,5502
2023-02-21T07:08:15.523Z,5502
2023-02-21T07:09:15.527Z,5502
2023-02-21T07:10:15.553Z,5502
2023-02-21T07:11:15.867Z,5502
2023-02-21T07:12:15.528Z,5871
2023-02-21T07:13:15.541Z,5871
2023-02-21T07:14:15.532Z,5871
2023-02-21T07:15:15.533Z,5871
2023-02-21T07:16:15.563Z,5871
2023-02-21T07:17:15.534Z,6288
2023-02-21T07:18:15.534Z,6288
2023-02-21T07:19:15.528Z,6288
2023-02-21T07:20:15.532Z,6534
2023-02-21T07:21:15.805Z,6534
2023-02-21T07:22:15.534Z,6534
2023-02-21T07:23:15.534Z,6534
2023-02-21T07:24:15.532Z,6534
2023-02-21T07:25:15.541Z,6621
2023-02-21T07:26:15.596Z,6621
2023-02-21T07:27:15.536Z,6621
2023-02-21T07:28:15.542Z,6621
2023-02-21T07:29:15.577Z,6621
2023-02-21T07:30:15.576Z,7086
2023-02-21T07:31:17.551Z,7086
2023-02-21T07:32:15.567Z,7086
2023-02-21T07:33:15.540Z,7086
2023-02-21T07:34:15.541Z,7086
2023-02-21T07:35:15.562Z,7631
2023-02-21T07:36:15.548Z,7631
2023-02-21T07:37:15.545Z,7631
2023-02-21T07:38:15.561Z,7631
2023-02-21T07:39:15.555Z,7631
2023-02-21T07:40:15.546Z,7870
2023-02-21T07:41:15.715Z,7870
2023-02-21T07:42:15.579Z,7870
2023-02-21T07:43:15.549Z,7870
2023-02-21T07:44:15.553Z,7870
2023-02-21T07:45:15.552Z,8085
2023-02-21T07:46:15.597Z,8085
2023-02-21T07:47:15.557Z,8085
2023-02-21T07:48:15.561Z,8085
2023-02-21T07:49:15.557Z,8085
2023-02-21T07:50:15.557Z,8297
2023-02-21T07:51:15.855Z,8360
2023-02-21T07:52:15.558Z,8360
2023-02-21T07:53:15.559Z,8360
2023-02-21T07:54:15.561Z,8464
2023-02-21T07:55:15.569Z,8464
2023-02-21T07:56:15.561Z,8464
2023-02-21T07:57:15.564Z,8464
2023-02-21T07:58:15.613Z,8464
2023-02-21T07:59:15.572Z,8498
2023-02-21T08:00:15.571Z,8498
2023-02-21T08:01:15.885Z,8498
2023-02-21T08:02:15.564Z,8498
2023-02-21T08:03:15.566Z,8498
2023-02-21T08:04:15.569Z,8323
2023-02-21T08:05:15.564Z,8323
2023-02-21T08:06:15.568Z,8323
2023-02-21T08:07:15.569Z,8323
2023-02-21T08:08:15.570Z,8323
2023-02-21T08:09:15.569Z,8694
2023-02-21T08:10:17.520Z,8694
2023-02-21T08:11:15.791Z,8694
2023-02-21T08:12:15.563Z,8694
2023-02-21T08:13:15.569Z,8694
2023-02-21T08:14:15.605Z,8724
2023-02-21T08:15:15.568Z,8724
2023-02-21T08:16:15.581Z,8724
2023-02-21T08:17:15.571Z,8724
2023-02-21T08:18:15.575Z,8724
2023-02-21T08:19:15.562Z,8806
2023-02-21T08:20:15.568Z,8806
2023-02-21T08:21:15.786Z,8786
2023-02-21T08:22:15.566Z,8770
2023-02-21T08:23:15.568Z,8750
2023-02-21T08:24:15.564Z,8786
2023-02-21T08:25:15.565Z,8786
2023-02-21T08:26:15.571Z,8786
2023-02-21T08:27:15.567Z,8786
2023-02-21T08:28:15.568Z,8786
2023-02-21T08:29:15.566Z,8896
2023-02-21T08:30:15.633Z,8896
2023-02-21T08:31:15.877Z,8896
2023-02-21T08:32:15.600Z,8896
2023-02-21T08:33:15.568Z,8993
2023-02-21T08:34:15.587Z,8935
2023-02-21T08:35:15.566Z,8935
2023-02-21T08:36:15.565Z,8935
2023-02-21T08:37:15.567Z,8935
2023-02-21T08:38:15.574Z,8935
2023-02-21T08:39:15.569Z,8978
2023-02-21T08:40:15.565Z,8978
2023-02-21T08:41:15.832Z,8978
2023-02-21T08:42:15.574Z,8978
2023-02-21T08:43:15.573Z,8978
2023-02-21T08:44:15.573Z,8952
2023-02-21T08:45:15.580Z,8952
2023-02-21T08:46:15.673Z,8952
2023-02-21T08:47:15.573Z,8952
2023-02-21T08:48:15.572Z,8952
2023-02-21T08:49:15.579Z,8983
2023-02-21T08:50:15.571Z,8983
2023-02-21T08:51:15.804Z,8983
2023-02-21T08:52:15.574Z,8983
2023-02-21T08:53:15.661Z,8983
2023-02-21T08:54:15.598Z,8624
2023-02-21T08:55:15.579Z,8624
2023-02-21T08:56:15.579Z,8624
2023-02-21T08:57:15.582Z,8624
2023-02-21T08:58:15.578Z,9012
2023-02-21T08:59:15.583Z,9012
2023-02-21T09:00:15.582Z,9012
2023-02-21T09:01:15.886Z,9012
2023-02-21T09:02:15.630Z,9012
2023-02-21T09:03:15.578Z,9047
2023-02-21T09:04:15.604Z,9047
2023-02-21T09:05:15.583Z,9047
2023-02-21T09:06:15.581Z,9047
2023-02-21T09:07:15.587Z,9047
2023-02-21T09:08:15.582Z,8985
2023-02-21T09:09:15.604Z,8985
2023-02-21T09:10:15.594Z,8985
2023-02-21T09:11:15.849Z,8985
2023-02-21T09:12:15.587Z,8985
2023-02-21T09:13:15.588Z,9101
2023-02-21T09:14:15.592Z,9101
2023-02-21T09:15:15.591Z,9101
2023-02-21T09:16:15.613Z,9101
2023-02-21T09:17:15.595Z,9101
2023-02-21T09:18:15.615Z,8991
2023-02-21T09:19:15.596Z,8991
2023-02-21T09:20:15.593Z,8991
2023-02-21T09:21:15.850Z,8991
2023-02-21T09:22:15.590Z,8991
2023-02-21T09:23:15.593Z,8870
2023-02-21T09:24:15.595Z,8870
2023-02-21T09:25:15.600Z,8870
2023-02-21T09:26:15.596Z,8870
2023-02-21T09:27:15.596Z,8870
2023-02-21T09:28:15.600Z,8935
2023-02-21T09:29:15.595Z,8935
2023-02-21T09:30:15.710Z,8935
2023-02-21T09:31:15.948Z,8935
2023-02-21T09:32:15.628Z,8935
2023-02-21T09:33:15.597Z,8917
2023-02-21T09:34:15.624Z,8974
2023-02-21T09:35:15.603Z,8964
2023-02-21T09:36:15.605Z,8964
2023-02-21T09:37:15.601Z,8964
2023-02-21T09:38:15.603Z,8964
2023-02-21T09:39:15.615Z,8964
2023-02-21T09:40:15.607Z,8861
2023-02-21T09:41:15.913Z,8861
2023-02-21T09:42:15.604Z,8861
2023-02-21T09:43:15.604Z,8861
2023-02-21T09:44:15.604Z,8861
2023-02-21T09:45:15.606Z,8956
2023-02-21T09:46:15.603Z,8956
2023-02-21T09:47:15.607Z,8956
2023-02-21T09:48:15.616Z,8956
2023-02-21T09:49:15.604Z,8956
2023-02-21T09:50:15.632Z,8123
2023-02-21T09:51:15.905Z,8980
2023-02-21T09:52:15.605Z,8980
2023-02-21T09:53:15.612Z,8980
2023-02-21T09:54:15.612Z,8980
2023-02-21T09:55:15.613Z,8980
2023-02-21T09:56:15.625Z,8900
2023-02-21T09:57:15.646Z,8966
2023-02-21T09:58:15.636Z,8966
2023-02-21T09:59:15.610Z,8966
2023-02-21T10:00:15.612Z,8966
2023-02-21T10:01:15.870Z,8551
2023-02-21T10:02:15.612Z,8551
2023-02-21T10:03:15.611Z,8551
2023-02-21T10:04:15.706Z,8551
2023-02-21T10:05:15.613Z,8551
2023-02-21T10:06:15.637Z,8551
2023-02-21T10:07:15.613Z,8551
2023-02-21T10:08:15.614Z,8551
2023-02-21T10:09:15.613Z,8551
2023-02-21T10:10:15.615Z,8551
2023-02-21T10:11:15.871Z,8551
2023-02-21T10:12:15.614Z,8551
2023-02-21T10:13:15.615Z,8551
2023-02-21T10:14:15.615Z,8551
2023-02-21T10:15:15.624Z,8551
2023-02-21T10:16:15.622Z,8551
2023-02-21T10:17:15.614Z,8551
2023-02-21T10:18:17.272Z,8784
2023-02-21T10:19:15.616Z,8888
2023-02-21T10:20:15.613Z,8815
2023-02-21T10:21:15.907Z,8815
2023-02-21T10:22:15.669Z,8815
2023-02-21T10:23:15.615Z,8815
2023-02-21T10:24:15.617Z,8815
2023-02-21T10:25:15.615Z,8570
2023-02-21T10:26:15.615Z,8570
2023-02-21T10:27:15.618Z,8952
2023-02-21T10:28:15.614Z,8952
2023-02-21T10:29:15.609Z,8952
2023-02-21T10:30:15.687Z,8952
2023-02-21T10:31:16.003Z,8843
2023-02-21T10:32:15.648Z,8966
2023-02-21T10:33:15.618Z,8987
2023-02-21T10:34:15.635Z,8682
2023-02-21T10:35:15.618Z,8682
2023-02-21T10:36:15.617Z,7616
2023-02-21T10:37:15.670Z,7616
2023-02-21T10:38:15.641Z,7616
2023-02-21T10:39:15.621Z,7616
2023-02-21T10:40:15.616Z,7616
2023-02-21T10:41:15.858Z,9154
2023-02-21T10:42:15.619Z,9154
2023-02-21T10:43:15.621Z,8551
2023-02-21T10:44:15.620Z,8551
2023-02-21T10:45:15.618Z,8551
2023-02-21T10:46:15.635Z,9026
2023-02-21T10:47:15.618Z,8564
2023-02-21T10:48:15.622Z,8134
2023-02-21T10:49:15.620Z,8024
2023-02-21T10:50:15.622Z,8024
2023-02-21T10:51:15.923Z,8123
2023-02-21T10:52:15.617Z,8123
2023-02-21T10:53:15.659Z,8123
2023-02-21T10:54:15.645Z,8849
2023-02-21T10:55:30.336Z,8849
2023-02-21T10:56:16.004Z,8570
2023-02-21T10:57:15.622Z,8570
2023-02-21T10:58:15.628Z,8132
2023-02-21T10:59:15.623Z,7679
2023-02-21T11:00:15.626Z,7679
2023-02-21T11:01:16.134Z,7679
2023-02-21T11:02:15.653Z,7308
2023-02-21T11:03:15.623Z,7308
2023-02-21T11:04:15.625Z,7741
2023-02-21T11:05:15.628Z,7842
2023-02-21T11:06:15.626Z,7842
2023-02-21T11:07:15.625Z,7842
2023-02-21T11:08:15.624Z,7842
2023-02-21T11:09:15.630Z,7842
2023-02-21T11:10:15.664Z,8768
2023-02-21T11:11:15.836Z,8553
2023-02-21T11:12:15.628Z,8618
2023-02-21T11:13:15.625Z,8618
2023-02-21T11:14:15.627Z,8264
2023-02-21T11:15:15.632Z,8264
2023-02-21T11:16:15.708Z,8264
2023-02-21T11:17:15.629Z,8474
2023-02-21T11:18:15.625Z,8474
2023-02-21T11:19:15.624Z,8474
2023-02-21T11:20:15.628Z,8474
2023-02-21T11:21:15.948Z,8474
2023-02-21T11:22:15.629Z,7786
2023-02-21T11:23:15.626Z,8437
2023-02-21T11:24:15.641Z,8350
2023-02-21T11:25:15.631Z,8350
2023-02-21T11:26:15.654Z,8350
2023-02-21T11:27:15.635Z,7869
2023-02-21T11:28:15.632Z,7764
2023-02-21T11:29:15.637Z,8030
2023-02-21T11:30:15.647Z,8030
2023-02-21T11:31:15.946Z,8400
2023-02-21T11:32:15.670Z,8400
2023-02-21T11:33:15.632Z,8067
2023-02-21T11:34:15.631Z,7903
2023-02-21T11:35:15.632Z,8260
2023-02-21T11:36:15.635Z,8352
2023-02-21T11:37:15.633Z,8158
2023-02-21T11:38:15.635Z,8158
2023-02-21T11:39:15.639Z,8158
2023-02-21T11:40:15.650Z,8072
2023-02-21T11:41:15.983Z,8072
2023-02-21T11:42:15.659Z,8555
2023-02-21T11:43:15.639Z,8228
2023-02-21T11:44:15.636Z,8553
2023-02-21T11:45:15.638Z,8553
2023-02-21T11:46:15.688Z,8553
2023-02-21T11:47:15.650Z,8559
2023-02-21T11:48:15.635Z,8559
2023-02-21T11:49:15.636Z,8559
2023-02-21T11:50:15.638Z,8559
2023-02-21T11:51:15.976Z,8559
2023-02-21T11:52:15.645Z,8559
2023-02-21T11:53:15.637Z,8559
2023-02-21T11:54:15.637Z,8559
2023-02-21T11:55:15.638Z,8851
2023-02-21T11:56:15.640Z,8851
2023-02-21T11:57:15.634Z,8851
2023-02-21T11:58:15.655Z,8851
2023-02-21T11:59:15.636Z,8851
2023-02-21T12:00:15.640Z,8863
2023-02-21T12:01:15.946Z,8863
2023-02-21T12:02:15.670Z,8863
2023-02-21T12:03:15.639Z,8557
2023-02-21T12:04:15.636Z,8706
2023-02-21T12:05:15.644Z,8706
2023-02-21T12:06:15.708Z,8706
2023-02-21T12:07:15.637Z,8849
2023-02-21T12:08:15.642Z,8768
2023-02-21T12:09:15.670Z,8428
2023-02-21T12:10:15.637Z,8549
2023-02-21T12:11:15.906Z,8459
2023-02-21T12:12:15.641Z,8459
2023-02-21T12:13:15.642Z,8459
2023-02-21T12:14:15.705Z,8459
2023-02-21T12:15:15.638Z,8335
2023-02-21T12:16:15.655Z,8297
2023-02-21T12:17:15.642Z,8297
2023-02-21T12:18:15.637Z,8297
2023-02-21T12:19:15.639Z,8297
2023-02-21T12:20:15.646Z,8297
2023-02-21T12:21:15.864Z,8297
2023-02-21T12:22:15.643Z,8215
2023-02-21T12:23:15.647Z,8011
2023-02-21T12:24:15.643Z,8011
2023-02-21T12:25:15.636Z,8084
2023-02-21T12:26:15.650Z,8084
2023-02-21T12:27:15.642Z,8084
2023-02-21T12:28:15.648Z,7880
2023-02-21T12:29:15.649Z,8207
2023-02-21T12:30:15.764Z,7727
2023-02-21T12:31:16.061Z,7743
2023-02-21T12:32:15.696Z,7743
2023-02-21T12:33:15.647Z,8375
2023-02-21T12:34:15.651Z,8375
2023-02-21T12:35:15.663Z,8535
2023-02-21T12:36:15.655Z,8408
2023-02-21T12:37:15.650Z,8095
2023-02-21T12:38:15.653Z,8140
2023-02-21T12:39:15.646Z,8082
2023-02-21T12:40:15.648Z,7127
2023-02-21T12:41:15.892Z,7934
2023-02-21T12:42:15.649Z,7755
2023-02-21T12:43:15.649Z,7755
2023-02-21T12:44:15.648Z,7755
2023-02-21T12:45:15.644Z,7755
2023-02-21T12:46:15.737Z,7755
2023-02-21T12:47:15.654Z,8874
2023-02-21T12:48:15.649Z,8874
2023-02-21T12:49:15.651Z,8874
2023-02-21T12:50:15.651Z,8872
2023-02-21T12:51:15.889Z,8872
2023-02-21T12:52:15.669Z,8945
2023-02-21T12:53:15.649Z,8945
2023-02-21T12:54:15.649Z,8945
2023-02-21T12:55:15.663Z,8915
2023-02-21T12:56:15.661Z,8570
2023-02-21T12:57:15.658Z,8243
2023-02-21T12:58:15.651Z,7612
2023-02-21T12:59:15.656Z,7188
2023-02-21T13:00:15.657Z,7188
2023-02-21T13:01:16.228Z,7188
2023-02-21T13:02:15.680Z,7188
2023-02-21T13:03:15.701Z,6495
2023-02-21T13:04:15.652Z,6831
2023-02-21T13:05:15.659Z,7410
2023-02-21T13:06:15.655Z,7437
2023-02-21T13:07:15.653Z,7930
2023-02-21T13:08:15.657Z,7003
2023-02-21T13:09:15.667Z,6537
2023-02-21T13:10:15.653Z,6537
2023-02-21T13:11:15.866Z,7246
2023-02-21T13:12:15.654Z,7145
2023-02-21T13:13:15.653Z,7530
2023-02-21T13:14:15.653Z,7343
2023-02-21T13:15:15.649Z,7343
2023-02-21T13:16:15.700Z,4345
2023-02-21T13:17:16.963Z,4874
2023-02-21T13:18:15.675Z,5500
2023-02-21T13:19:15.656Z,5500
2023-02-21T13:20:15.652Z,5500
2023-02-21T13:21:15.949Z,8234
2023-02-21T13:22:15.650Z,8011
2023-02-21T13:23:15.654Z,7665
2023-02-21T13:24:15.653Z,7528
2023-02-21T13:25:15.667Z,7672
2023-02-21T13:26:15.653Z,6458
2023-02-21T13:27:15.653Z,5979
2023-02-21T13:28:15.655Z,7044
2023-02-21T13:29:15.656Z,7110
2023-02-21T13:30:15.669Z,7110
2023-02-21T13:31:15.955Z,7110
2023-02-21T13:32:15.789Z,7110
2023-02-21T13:33:15.654Z,7330
2023-02-21T13:34:15.681Z,7330
2023-02-21T13:35:15.656Z,7716
2023-02-21T13:36:15.660Z,7711
2023-02-21T13:37:15.655Z,7480
2023-02-21T13:38:15.654Z,7109
2023-02-21T13:39:15.657Z,7168
2023-02-21T13:40:15.654Z,7274
2023-02-21T13:41:15.959Z,8022
2023-02-21T13:42:15.658Z,8022
2023-02-21T13:43:15.656Z,8022
2023-02-21T13:44:15.658Z,7752
2023-02-21T13:45:15.657Z,8168
2023-02-21T13:46:15.704Z,7764
2023-02-21T13:47:15.658Z,7764
2023-02-21T13:48:15.656Z,7764
2023-02-21T13:49:15.665Z,7764
2023-02-21T13:50:15.693Z,7764
2023-02-21T13:51:15.909Z,7138
2023-02-21T13:52:15.669Z,6477
2023-02-21T13:53:15.656Z,6477
2023-02-21T13:54:15.659Z,6613
2023-02-21T13:55:15.739Z,7295
2023-02-21T13:56:15.662Z,7295